Time;durP1;ratioP1;P1;durP2;ratioP2;P2;SDS_P1;SDS_P2;PMS_P1;PMS_P2;Temp;Humidity;BMP_temperature;BMP_pressure;BME280_temperature;BME280_humidity;BME280_pressure;Samples;Min_cycle;Max_cycle;Signal;HPM_P1;HPM_P2
2022/05/21 00:00:49;;;;;;;7.43;4.68;;;;;;;24.58;58.61;95888.00;4935155;29;20221;-85
2022/05/21 00:03:15;;;;;;;6.15;4.68;;;;;;;24.46;59.62;95901.34;4935215;29;20201;-86
2022/05/21 00:05:42;;;;;;;5.97;4.38;;;;;;;24.40;59.71;95899.78;4935071;29;20229;-83
2022/05/21 00:08:10;;;;;;;7.72;4.40;;;;;;;24.23;60.39;95907.00;4928777;29;20220;-84
2022/05/21 00:10:38;;;;;;;6.63;4.70;;;;;;;24.00;61.11;95908.19;4927323;29;20217;-84
2022/05/21 00:13:06;;;;;;;7.25;4.35;;;;;;;23.87;61.45;95906.75;4936130;29;20213;-84
2022/05/21 00:15:35;;;;;;;6.43;4.40;;;;;;;23.70;61.60;95920.03;4935679;29;20198;-86
2022/05/21 00:18:04;;;;;;;7.43;4.75;;;;;;;23.52;62.26;95906.47;4935946;28;20232;-85
2022/05/21 00:20:48;;;;;;;5.47;4.65;;;;;;;23.52;62.14;95909.09;4934892;29;20669;-85
2022/05/21 00:23:17;;;;;;;5.72;4.50;;;;;;;23.62;61.06;95904.75;4930704;29;20681;-85
2022/05/21 00:25:45;;;;;;;16.00;13.80;;;;;;;23.73;61.23;95903.75;4935005;29;20209;-84
2022/05/21 00:28:12;;;;;;;7.32;6.55;;;;;;;23.74;61.15;95905.34;4929394;28;20244;-83
2022/05/21 00:30:39;;;;;;;7.07;5.38;;;;;;;23.71;61.65;95905.84;4951291;29;20763;-85
2022/05/21 00:33:07;;;;;;;7.07;4.32;;;;;;;23.59;62.07;95921.00;4945159;29;20236;-85
2022/05/21 00:35:34;;;;;;;5.53;4.43;;;;;;;23.51;62.11;95934.56;4935055;29;20733;-84
2022/05/21 00:38:01;;;;;;;5.80;4.32;;;;;;;23.50;62.20;95938.25;4931925;29;20213;-84
2022/05/21 00:40:28;;;;;;;10.10;4.85;;;;;;;23.48;62.04;95944.78;4918006;29;20261;-84
2022/05/21 00:42:55;;;;;;;4.63;4.13;;;;;;;23.34;62.26;95947.81;4935803;29;20206;-84
2022/05/21 00:45:22;;;;;;;9.00;4.93;;;;;;;23.35;62.30;95957.28;4935101;29;20198;-85
2022/05/21 00:47:48;;;;;;;8.13;4.35;;;;;;;23.18;62.47;95961.03;4935746;28;20709;-84
2022/05/21 00:50:18;;;;;;;5.47;4.35;;;;;;;23.18;62.77;95948.69;4934258;29;20281;-84
2022/05/21 00:52:45;;;;;;;4.82;4.43;;;;;;;23.10;63.63;95954.38;4935843;29;20208;-84
2022/05/21 00:55:16;;;;;;;6.57;4.47;;;;;;;23.14;62.02;95947.59;4935134;29;20208;-84
2022/05/21 00:57:46;;;;;;;6.32;4.22;;;;;;;23.21;61.22;95942.16;4933997;29;20194;-84
2022/05/21 01:00:19;;;;;;;6.15;4.22;;;;;;;23.16;61.54;95937.63;4935212;29;20225;-83
2022/05/21 01:02:48;;;;;;;6.20;4.03;;;;;;;23.25;60.70;95932.75;4936217;29;20209;-84
2022/05/21 01:05:19;;;;;;;5.18;4.15;;;;;;;23.23;60.51;95945.34;4933909;29;20206;-84
2022/05/21 01:07:46;;;;;;;6.90;4.03;;;;;;;23.32;59.80;95933.34;4933228;28;20701;-84
2022/05/21 01:10:16;;;;;;;5.53;3.80;;;;;;;23.23;61.02;95956.66;4935400;29;20234;-84
2022/05/21 01:12:45;;;;;;;4.68;4.05;;;;;;;23.16;60.49;95955.25;4936096;29;20217;-85
2022/05/21 01:15:16;;;;;;;7.78;3.88;;;;;;;23.03;61.91;95957.22;4927071;29;20285;-85
2022/05/21 01:17:43;;;;;;;4.70;3.65;;;;;;;22.95;61.69;95954.22;4933862;29;20202;-84
2022/05/21 01:20:13;;;;;;;5.70;3.70;;;;;;;22.89;61.37;95961.25;4934652;29;20241;-84
2022/05/21 01:22:43;;;;;;;4.20;3.72;;;;;;;22.82;61.79;95963.25;4935967;29;20208;-83
2022/05/21 01:25:10;;;;;;;5.03;3.65;;;;;;;22.74;62.09;95969.69;4934981;29;20201;-85
2022/05/21 01:27:36;;;;;;;4.50;3.95;;;;;;;22.61;63.24;95979.75;4935508;29;20225;-84
2022/05/21 01:30:07;;;;;;;5.15;4.03;;;;;;;22.49;65.07;95995.63;4928293;29;20284;-83
2022/05/21 01:32:33;;;;;;;5.38;3.55;;;;;;;22.39;64.93;95993.63;4935739;29;20202;-84
2022/05/21 01:35:00;;;;;;;5.60;3.70;;;;;;;22.47;64.55;95992.44;4934134;29;20202;-84
2022/05/21 01:37:28;;;;;;;5.53;3.63;;;;;;;22.34;65.35;95993.53;4934033;29;20261;-84
2022/05/21 01:39:56;;;;;;;4.97;3.65;;;;;;;22.31;64.64;96006.38;4933306;28;20233;-84
2022/05/21 01:42:23;;;;;;;4.45;3.47;;;;;;;22.21;65.42;96001.75;4934836;29;20670;-84
2022/05/21 01:44:52;;;;;;;3.70;3.40;;;;;;;22.16;66.25;95998.25;4934178;29;20202;-84
2022/05/21 01:47:21;;;;;;;4.32;3.65;;;;;;;22.16;65.12;95993.78;4933579;29;20949;-84
2022/05/21 01:49:48;;;;;;;8.43;3.67;;;;;;;21.93;65.77;95996.56;4933062;28;20257;-84
2022/05/21 01:52:15;;;;;;;5.53;3.42;;;;;;;21.92;65.31;95995.75;4934644;29;20222;-85
2022/05/21 01:54:41;;;;;;;5.95;3.42;;;;;;;21.89;64.98;95984.94;4934430;29;20209;-84
2022/05/21 01:57:10;;;;;;;4.20;3.55;;;;;;;21.93;64.98;95979.00;4933914;29;20198;-84
2022/05/21 01:59:37;;;;;;;3.67;3.30;;;;;;;21.93;63.83;95980.81;4933398;28;20321;-84
2022/05/21 02:02:04;;;;;;;5.85;3.50;;;;;;;21.93;63.43;95986.06;4931407;29;20194;-85
2022/05/21 02:04:30;;;;;;;3.95;3.47;;;;;;;21.91;63.75;95996.00;4937968;29;20209;-84
2022/05/21 02:06:57;;;;;;;4.35;3.10;;;;;;;21.90;63.55;96000.44;4937479;29;20236;-84
2022/05/21 02:09:23;;;;;;;3.78;3.45;;;;;;;21.96;63.64;96002.09;4937071;28;20288;-86
2022/05/21 02:11:50;;;;;;;4.28;3.55;;;;;;;22.09;63.27;96002.88;4937331;29;20610;-84
2022/05/21 02:14:17;;;;;;;4.00;3.53;;;;;;;22.03;64.17;95994.91;4932496;29;20214;-84
2022/05/21 02:16:44;;;;;;;4.40;3.70;;;;;;;22.05;64.29;95995.47;4935611;29;20206;-84
2022/05/21 02:19:10;;;;;;;4.50;3.65;;;;;;;22.04;64.47;95999.13;4938023;28;20241;-84
2022/05/21 02:21:40;;;;;;;4.43;3.80;;;;;;;22.13;64.09;96004.00;4937925;29;20202;-85
2022/05/21 02:24:08;;;;;;;4.35;3.55;;;;;;;22.15;65.30;96005.31;4924656;29;20201;-86
2022/05/21 02:26:36;;;;;;;5.38;3.80;;;;;;;22.21;65.32;96000.94;4937775;29;20919;-85
2022/05/21 02:29:02;;;;;;;5.05;3.88;;;;;;;22.24;64.90;96005.72;4938240;28;20233;-85
2022/05/21 02:31:30;;;;;;;6.72;3.83;;;;;;;22.23;66.41;96009.38;4937312;29;20209;-86
2022/05/21 02:33:57;;;;;;;4.63;4.10;;;;;;;22.22;66.49;96013.84;4937753;29;20212;-85
2022/05/21 02:39:25;;;;;;;4.53;4.05;;;;;;;22.09;67.85;96006.28;4937310;29;20206;-85
2022/05/21 02:39:28;;;;;;;6.40;4.25;;;;;;;22.08;67.66;96001.28;4929806;28;20759;-85
2022/05/21 02:41:56;;;;;;;5.43;3.85;;;;;;;21.91;69.43;96006.50;4938126;29;20209;-85
2022/05/21 02:44:23;;;;;;;5.47;4.07;;;;;;;21.94;68.11;96022.53;4937885;29;20222;-85
2022/05/21 02:46:50;;;;;;;4.53;3.90;;;;;;;21.95;68.94;96018.06;4937777;29;20225;-85
2022/05/21 02:49:17;;;;;;;4.80;4.25;;;;;;;21.91;69.55;96009.09;4937045;29;20229;-84
2022/05/21 02:51:43;;;;;;;5.40;4.47;;;;;;;21.92;69.67;96006.25;4938161;29;20260;-86
2022/05/21 02:54:14;;;;;;;4.30;3.90;;;;;;;21.88;70.37;96010.38;4937684;29;20197;-85
2022/05/21 02:56:43;;;;;;;5.25;4.20;;;;;;;21.84;70.29;96013.69;4936936;29;20729;-84
2022/05/21 02:59:11;;;;;;;6.60;4.32;;;;;;;21.92;69.82;96010.69;4936195;28;20225;-84
2022/05/21 03:01:38;;;;;;;4.60;4.10;;;;;;;21.96;69.30;96001.31;4937248;29;20724;-85
2022/05/21 03:04:07;;;;;;;4.90;4.40;;;;;;;21.93;69.61;96001.81;4936955;29;20210;-84
2022/05/21 03:06:34;;;;;;;5.82;4.47;;;;;;;21.91;69.23;96012.53;4936743;29;20202;-84
2022/05/21 03:11:44;;;;;;;5.25;3.95;;;;;;;21.61;69.77;96012.78;4936895;29;20292;-84
2022/05/21 03:14:10;;;;;;;5.20;4.10;;;;;;;21.63;70.00;96015.97;4935688;29;20212;-85
2022/05/21 03:16:37;;;;;;;4.60;4.07;;;;;;;21.66;69.55;96019.94;4929251;29;20852;-84
2022/05/21 03:19:03;;;;;;;4.78;3.67;;;;;;;21.68;69.20;96023.13;4927814;28;20237;-85
2022/05/21 03:21:31;;;;;;;4.13;3.72;;;;;;;21.73;68.71;96025.84;4936786;29;20201;-84
2022/05/21 03:23:58;;;;;;;6.07;3.88;;;;;;;21.69;68.88;96019.47;4937441;29;20201;-84
2022/05/21 03:26:25;;;;;;;4.70;3.60;;;;;;;21.66;68.31;96015.50;4935424;29;20206;-85
2022/05/21 03:28:52;;;;;;;4.88;3.60;;;;;;;21.74;67.64;96016.16;4935685;28;20233;-83
2022/05/21 03:31:18;;;;;;;4.15;3.70;;;;;;;21.69;67.25;96025.53;4936686;29;20216;-85
2022/05/21 03:33:45;;;;;;;6.10;3.90;;;;;;;21.68;67.27;96017.88;4935343;29;20209;-84
2022/05/21 03:36:11;;;;;;;4.57;3.50;;;;;;;21.56;67.02;96020.53;4934442;29;20206;-86
2022/05/21 03:38:39;;;;;;;4.35;3.85;;;;;;;21.60;67.51;96020.88;4931084;28;20229;-84
2022/05/21 03:41:06;;;;;;;4.28;3.88;;;;;;;21.61;67.21;96036.38;4924611;29;20258;-84
2022/05/21 03:43:32;;;;;;;6.53;4.10;;;;;;;21.61;67.42;96023.25;4933784;29;20313;-84
2022/05/21 03:46:00;;;;;;;4.22;3.53;;;;;;;21.53;67.25;96031.50;4931188;29;20740;-85
2022/05/21 03:48:26;;;;;;;5.68;3.95;;;;;;;21.56;66.64;96035.47;4928151;28;20312;-84
2022/05/21 03:50:53;;;;;;;4.80;3.33;;;;;;;21.52;67.06;96035.16;4925881;29;20253;-86
2022/05/21 03:53:20;;;;;;;3.72;3.40;;;;;;;21.47;66.97;96044.75;4933187;29;20201;-86
2022/05/21 03:55:48;;;;;;;4.78;3.35;;;;;;;21.52;66.59;96050.09;4932143;29;20205;-86
2022/05/21 03:58:15;;;;;;;4.25;3.65;;;;;;;21.47;66.50;96057.84;4926277;28;20733;-85
2022/05/21 04:00:42;;;;;;;5.38;3.92;;;;;;;21.42;67.02;96065.59;4933949;29;20248;-85
2022/05/21 04:03:09;;;;;;;6.13;3.47;;;;;;;21.36;66.42;96068.13;4932740;29;20264;-85
2022/05/21 04:05:36;;;;;;;4.72;3.50;;;;;;;21.23;66.92;96057.91;4925092;29;20208;-85
2022/05/21 04:08:03;;;;;;;3.53;3.22;;;;;;;21.25;66.52;96062.91;4933314;28;20921;-85
2022/05/21 04:10:30;;;;;;;4.13;3.72;;;;;;;21.19;66.83;96069.84;4925008;29;20226;-85
2022/05/21 04:12:57;;;;;;;5.00;3.50;;;;;;;20.99;67.08;96058.94;4928709;29;20214;-85
2022/05/21 04:15:25;;;;;;;3.63;3.28;;;;;;;21.08;67.00;96065.44;4931628;29;20280;-85
2022/05/21 04:17:53;;;;;;;4.97;3.33;;;;;;;21.14;66.59;96072.38;4932249;28;20212;-84
2022/05/21 04:20:23;;;;;;;4.03;3.67;;;;;;;21.22;66.52;96079.88;4933062;29;20222;-85
2022/05/21 04:22:49;;;;;;;4.15;3.75;;;;;;;21.19;66.67;96085.56;4924313;29;20210;-85
2022/05/21 04:25:16;;;;;;;3.47;3.17;;;;;;;21.13;67.07;96086.50;4933314;29;20627;-84
2022/05/21 04:27:43;;;;;;;3.70;3.30;;;;;;;21.10;66.95;96079.09;4931123;28;20229;-85
2022/05/21 04:30:16;;;;;;;4.85;3.40;;;;;;;21.16;66.93;96082.63;4925930;29;20230;-84
2022/05/21 04:32:43;;;;;;;3.80;3.33;;;;;;;21.15;66.31;96086.25;4930288;29;20238;-84
2022/05/21 04:35:10;;;;;;;3.97;3.50;;;;;;;21.21;66.41;96087.97;4931134;29;20201;-85
2022/05/21 04:37:37;;;;;;;4.45;3.78;;;;;;;21.25;66.63;96084.66;4934932;29;20209;-84
2022/05/21 04:40:04;;;;;;;3.80;3.50;;;;;;;21.27;66.30;96080.00;4934219;28;20256;-83
2022/05/21 04:42:30;;;;;;;3.53;3.13;;;;;;;21.44;65.76;96082.69;4933404;29;20269;-84
2022/05/21 04:44:57;;;;;;;4.28;3.30;;;;;;;21.46;65.39;96091.13;4934963;29;20205;-84
2022/05/21 04:47:25;;;;;;;3.95;3.20;;;;;;;21.47;64.66;96100.56;4933801;29;20701;-85
2022/05/21 04:49:51;;;;;;;3.80;3.33;;;;;;;21.43;64.63;96099.44;4933617;28;20237;-84
2022/05/21 04:52:18;;;;;;;3.58;3.15;;;;;;;21.34;64.84;96106.06;4932940;29;20206;-84
2022/05/21 04:54:44;;;;;;;4.63;3.00;;;;;;;21.27;63.78;96110.63;4935824;29;20205;-84
2022/05/21 04:57:11;;;;;;;4.85;3.05;;;;;;;21.20;64.56;96109.94;4933683;29;20202;-86
2022/05/21 04:59:37;;;;;;;7.50;3.70;;;;;;;21.46;64.45;96098.97;4932816;28;20233;-84
2022/05/21 05:02:05;;;;;;;4.57;2.95;;;;;;;21.63;62.37;96110.31;4928768;29;20207;-86
2022/05/21 05:04:33;;;;;;;2.85;2.65;;;;;;;21.83;61.70;96119.59;4929401;29;20227;-87
2022/05/21 05:06:59;;;;;;;3.65;2.72;;;;;;;21.82;61.15;96121.41;4938909;29;20617;-85
2022/05/21 05:09:35;;;;;;;5.38;2.88;;;;;;;21.89;60.59;96126.53;4943898;28;20240;-88
2022/05/21 05:12:08;;;;;;;4.30;2.58;;;;;;;21.93;60.15;96125.03;4943131;29;20237;-86
2022/05/21 05:14:37;;;;;;;2.85;2.63;;;;;;;22.01;59.96;96128.09;4945137;29;20198;-85
2022/05/21 05:17:06;;;;;;;3.13;2.53;;;;;;;21.88;58.77;96125.75;4935441;29;20225;-84
2022/05/21 05:19:34;;;;;;;3.75;2.72;;;;;;;21.75;59.40;96123.38;4931981;28;20912;-83
2022/05/21 05:22:00;;;;;;;2.72;2.47;;;;;;;21.68;59.10;96127.97;4932284;29;20257;-83
2022/05/21 05:24:26;;;;;;;5.15;2.40;;;;;;;21.46;58.83;96133.03;4932600;29;20257;-83
2022/05/21 05:26:53;;;;;;;4.70;2.72;;;;;;;21.53;59.29;96127.69;4933203;29;20261;-82
2022/05/21 05:29:19;;;;;;;2.83;2.17;;;;;;;21.61;58.17;96129.91;4932017;28;20309;-83
2022/05/21 05:31:45;;;;;;;2.63;2.30;;;;;;;21.63;57.92;96127.88;4931147;29;20241;-81
2022/05/21 05:34:12;;;;;;;2.25;2.08;;;;;;;21.83;57.96;96132.72;4925252;29;20265;-82
2022/05/21 05:36:41;;;;;;;2.67;2.20;;;;;;;21.85;56.67;96139.31;4935308;29;20201;-83
2022/05/21 05:39:07;;;;;;;2.97;2.38;;;;;;;21.96;57.40;96135.84;4935470;28;20236;-82
2022/05/21 05:41:37;;;;;;;2.38;1.88;;;;;;;22.07;56.54;96133.44;4935866;29;20254;-82
2022/05/21 05:44:04;;;;;;;5.22;2.55;;;;;;;22.12;56.81;96131.72;4937299;29;20288;-83
2022/05/21 05:46:31;;;;;;;3.50;2.10;;;;;;;22.11;56.40;96145.88;4936925;29;20205;-83
2022/05/21 05:48:57;;;;;;;3.78;1.98;;;;;;;21.95;55.85;96142.13;4935159;28;20233;-82
2022/05/21 05:51:24;;;;;;;2.53;2.10;;;;;;;21.96;55.74;96138.47;4928486;29;20205;-83
2022/05/21 05:53:51;;;;;;;2.38;2.10;;;;;;;22.14;55.71;96140.13;4936907;29;20210;-82
2022/05/21 05:56:18;;;;;;;2.88;2.05;;;;;;;22.23;56.01;96141.34;4935971;29;20225;-82
2022/05/21 06:01:29;;;;;;;2.08;1.77;;;;;;;22.01;55.08;96143.03;4935967;29;20342;-81
2022/05/21 06:03:56;;;;;;;3.95;2.47;;;;;;;22.07;54.54;96155.22;4936700;29;20696;-85
2022/05/21 06:06:23;;;;;;;2.10;2.00;;;;;;;22.05;54.75;96150.22;4936822;29;20618;-83
2022/05/21 06:08:50;;;;;;;2.30;2.05;;;;;;;22.01;54.33;96151.72;4937794;28;20241;-84
2022/05/21 06:11:20;;;;;;;2.10;1.90;;;;;;;22.02;55.50;96158.53;4936903;29;20323;-86
2022/05/21 06:13:54;;;;;;;1.92;1.73;;;;;;;21.93;54.26;96153.88;4936291;29;20212;-91
2022/05/21 06:16:21;;;;;;;3.00;2.00;;;;;;;21.99;53.98;96153.72;4936185;29;20205;-83
2022/05/21 06:18:50;;;;;;;1.92;1.80;;;;;;;22.02;53.52;96149.88;4936615;28;20229;-82
2022/05/21 06:21:16;;;;;;;2.95;1.80;;;;;;;22.10;53.01;96148.72;4935691;29;20221;-83
2022/05/21 06:23:44;;;;;;;1.63;1.52;;;;;;;22.04;53.75;96153.88;4936916;29;20273;-84
2022/05/21 06:26:13;;;;;;;5.28;1.83;;;;;;;21.97;53.63;96155.78;4935507;29;20256;-84
2022/05/21 06:28:41;;;;;;;3.72;1.80;;;;;;;21.90;53.31;96154.34;4936476;28;20244;-82
2022/05/21 06:31:10;;;;;;;3.17;1.77;;;;;;;22.09;52.94;96155.78;4935200;29;20285;-82
2022/05/21 06:33:36;;;;;;;2.40;1.83;;;;;;;21.95;52.68;96152.59;4936858;29;20198;-82
2022/05/21 06:36:06;;;;;;;3.13;1.80;;;;;;;22.11;52.08;96155.56;4928041;29;20201;-82
2022/05/21 06:38:33;;;;;;;3.85;2.22;;;;;;;22.19;51.31;96158.59;4935769;28;20296;-82
2022/05/21 06:41:00;;;;;;;2.97;1.85;;;;;;;22.17;50.88;96157.22;4933901;29;20797;-81
2022/05/21 06:43:27;;;;;;;3.53;1.70;;;;;;;22.20;51.55;96164.63;4932789;29;20201;-84
2022/05/21 06:45:55;;;;;;;2.17;1.70;;;;;;;22.00;51.27;96160.59;4935783;29;20363;-83
2022/05/21 06:48:21;;;;;;;3.40;1.75;;;;;;;21.91;51.71;96162.00;4935117;28;20229;-83
2022/05/21 06:50:48;;;;;;;2.65;1.88;;;;;;;21.86;53.18;96166.31;4934901;29;20233;-81
2022/05/21 06:53:15;;;;;;;2.42;2.10;;;;;;;21.74;53.05;96174.25;4936056;29;20269;-83
2022/05/21 06:55:42;;;;;;;2.10;1.90;;;;;;;21.83;53.08;96175.44;4935879;29;20673;-83
2022/05/21 06:58:09;;;;;;;2.28;1.92;;;;;;;21.85;51.41;96168.16;4934419;28;20233;-82
2022/05/21 07:00:36;;;;;;;2.10;1.77;;;;;;;21.87;51.26;96167.94;4934744;29;20254;-81
2022/05/21 07:03:04;;;;;;;2.55;1.70;;;;;;;21.96;52.12;96177.78;4935298;29;20634;-82
2022/05/21 07:08:28;;;;;;;4.70;4.20;;;;;;;22.25;52.02;96175.22;4911155;29;20245;-84
2022/05/21 07:10:55;;;;;;;4.78;4.07;;;;;;;22.26;51.29;96180.25;4929411;29;20225;-84
2022/05/21 07:13:24;;;;;;;3.05;1.95;;;;;;;22.02;50.90;96173.47;4927490;29;20761;-83
2022/05/21 07:15:52;;;;;;;2.22;1.80;;;;;;;22.15;51.00;96182.88;4934875;29;20264;-84
2022/05/21 07:18:22;;;;;;;2.42;1.90;;;;;;;22.30;50.78;96178.75;4926091;28;20249;-83
2022/05/21 07:20:49;;;;;;;1.95;1.83;;;;;;;22.30;51.14;96178.75;4934269;29;20304;-82
2022/05/21 07:23:16;;;;;;;2.35;1.92;;;;;;;22.39;51.22;96179.94;4934610;29;20212;-82
2022/05/21 07:25:44;;;;;;;2.83;1.88;;;;;;;22.25;50.61;96185.72;4934043;29;20205;-80
2022/05/21 07:28:10;;;;;;;3.38;1.75;;;;;;;22.23;50.27;96174.66;4934785;28;20733;-83
2022/05/21 07:30:38;;;;;;;1.88;1.60;;;;;;;22.32;50.53;96179.28;4934269;29;20237;-83
2022/05/21 07:33:08;;;;;;;2.65;2.05;;;;;;;22.52;50.59;96176.22;4934463;29;20202;-82
2022/05/21 07:35:37;;;;;;;2.28;2.00;;;;;;;22.54;50.36;96171.53;4934634;29;20257;-82
2022/05/21 07:38:04;;;;;;;3.58;2.13;;;;;;;22.59;51.00;96170.81;4927997;28;20232;-84
2022/05/21 07:40:31;;;;;;;5.28;2.00;;;;;;;22.48;50.99;96175.13;4933893;29;20654;-81
2022/05/21 07:42:57;;;;;;;7.82;6.75;;;;;;;22.61;50.11;96169.56;4935115;29;20737;-84
2022/05/21 07:45:24;;;;;;;2.70;2.50;;;;;;;22.66;48.42;96160.97;4933885;29;20212;-83
2022/05/21 07:47:51;;;;;;;3.00;2.60;;;;;;;22.86;48.43;96166.56;4925725;28;20269;-83
2022/05/21 07:50:19;;;;;;;3.10;2.70;;;;;;;23.00;48.07;96167.84;4933250;29;20780;-81
2022/05/21 07:52:47;;;;;;;2.70;2.35;;;;;;;22.98;47.48;96162.03;4933416;29;20229;-82
2022/05/21 07:55:14;;;;;;;2.03;1.90;;;;;;;22.94;47.64;96158.28;4934116;29;20276;-82
2022/05/21 07:57:41;;;;;;;2.95;2.47;;;;;;;23.05;49.65;96167.13;4928586;28;20288;-83
2022/05/21 08:00:10;;;;;;;4.35;2.03;;;;;;;23.22;48.20;96165.25;4925597;29;20218;-82
2022/05/21 08:02:41;;;;;;;2.25;2.00;;;;;;;23.32;47.69;96159.34;4934015;29;20559;-83
2022/05/21 08:05:07;;;;;;;2.22;2.03;;;;;;;23.48;47.62;96147.19;4935260;29;20314;-82
2022/05/21 08:07:34;;;;;;;4.38;3.97;;;;;;;23.66;49.07;96153.00;4935204;29;20562;-83
2022/05/21 08:10:01;;;;;;;2.67;2.20;;;;;;;23.71;47.64;96142.53;4934646;28;20233;-82
2022/05/21 08:12:28;;;;;;;3.65;2.08;;;;;;;23.87;46.68;96138.22;4935140;29;20201;-82
2022/05/21 08:14:54;;;;;;;3.20;2.10;;;;;;;23.87;47.97;96140.84;4935332;29;20244;-83
2022/05/21 08:17:21;;;;;;;3.20;2.05;;;;;;;24.06;46.34;96150.00;4935454;29;20206;-83
2022/05/21 08:19:47;;;;;;;2.25;1.80;;;;;;;24.10;46.85;96142.41;4934604;28;20304;-83
2022/05/21 08:27:43;;;;;;;1.95;1.77;;;;;;;24.45;44.29;96145.41;4924704;28;20238;-84
2022/05/21 08:30:10;;;;;;;2.53;1.70;;;;;;;24.49;44.79;96139.66;4933618;29;20709;-82
2022/05/21 08:32:38;;;;;;;1.63;1.52;;;;;;;24.38;44.86;96136.16;4927036;29;20209;-83
2022/05/21 08:35:05;;;;;;;1.90;1.80;;;;;;;24.39;44.67;96135.91;4920078;29;20201;-84
2022/05/21 08:37:33;;;;;;;3.67;1.90;;;;;;;24.35;44.77;96137.44;4934589;29;20197;-84
2022/05/21 08:39:59;;;;;;;1.95;1.77;;;;;;;24.74;43.72;96142.50;4932275;28;20232;-85
2022/05/21 08:42:33;;;;;;;1.73;1.55;;;;;;;24.80;42.38;96141.50;4934465;29;20217;-82
2022/05/21 08:45:09;;;;;;;2.17;1.73;;;;;;;24.81;43.52;96145.72;4932693;29;20288;-82
2022/05/21 08:47:38;;;;;;;3.17;1.90;;;;;;;24.89;43.27;96128.63;4933666;29;20732;-83
2022/05/21 08:50:09;;;;;;;1.63;1.52;;;;;;;24.97;43.43;96131.63;4922218;29;20240;-83
2022/05/21 08:52:42;;;;;;;2.10;1.63;;;;;;;25.09;41.54;96131.44;4930917;29;20614;-83
2022/05/21 08:55:10;;;;;;;1.52;1.42;;;;;;;25.26;40.69;96124.16;4924984;29;20197;-82
2022/05/21 08:57:45;;;;;;;1.88;1.77;;;;;;;25.39;40.72;96125.56;4932099;29;20209;-82
2022/05/21 09:00:17;;;;;;;3.67;2.60;;;;;;;25.36;40.62;96126.06;4924471;29;20280;-83
2022/05/21 09:02:44;;;;;;;4.47;4.10;;;;;;;25.38;40.18;96121.31;4932907;29;20201;-83
2022/05/21 09:05:13;;;;;;;1.70;1.60;;;;;;;25.12;40.66;96118.53;4931968;29;20703;-84
2022/05/21 09:07:51;;;;;;;2.97;1.73;;;;;;;25.38;39.89;96121.31;4934056;28;20632;-81
2022/05/21 09:10:39;;;;;;;1.67;1.58;;;;;;;25.53;38.04;96115.31;4932992;29;20642;-83
2022/05/21 09:13:16;;;;;;;2.22;1.40;;;;;;;25.57;37.69;96119.81;4934183;29;20209;-82
2022/05/21 09:18:31;;;;;;;1.83;1.55;;;;;;;25.82;39.21;96113.84;4933121;28;20605;-82
2022/05/21 09:21:00;;;;;;;2.50;1.50;;;;;;;25.76;39.11;96120.19;4933498;29;20648;-81
2022/05/21 09:23:46;;;;;;;1.88;1.75;;;;;;;25.62;38.06;96109.31;4934324;29;20216;-83
2022/05/21 09:26:13;;;;;;;4.50;1.55;;;;;;;25.39;39.38;96115.78;4934036;29;20201;-83
2022/05/21 09:28:41;;;;;;;3.08;1.48;;;;;;;25.74;39.56;96111.75;4933617;28;20237;-82
2022/05/21 09:31:11;;;;;;;1.35;1.27;;;;;;;25.97;38.78;96110.50;4933238;29;20225;-83
2022/05/21 09:33:40;;;;;;;1.63;1.40;;;;;;;25.94;36.49;96113.63;4934507;29;20202;-83
2022/05/21 09:36:07;;;;;;;1.92;1.30;;;;;;;26.23;37.67;96114.75;4934214;29;20201;-82
2022/05/21 09:38:38;;;;;;;3.45;1.90;;;;;;;26.28;36.38;96103.41;4934176;28;20236;-83
2022/05/21 09:41:09;;;;;;;2.40;2.20;;;;;;;26.31;35.18;96111.63;4933757;29;20225;-84
2022/05/21 09:46:26;;;;;;;1.20;1.10;;;;;;;26.30;33.58;96110.03;4934287;29;20280;-83
2022/05/21 09:48:55;;;;;;;1.50;1.20;;;;;;;26.51;34.46;96113.47;4933327;28;20233;-82
2022/05/21 09:51:29;;;;;;;1.20;1.10;;;;;;;26.28;33.63;96106.03;4933464;29;20288;-82
2022/05/21 09:53:56;;;;;;;1.33;1.00;;;;;;;26.37;33.55;96107.91;4934034;29;20205;-82
2022/05/21 09:56:25;;;;;;;2.67;1.10;;;;;;;26.62;33.06;96111.63;4934012;29;20205;-83
2022/05/21 09:58:54;;;;;;;1.33;1.23;;;;;;;26.67;32.65;96116.91;4933652;28;20233;-83
2022/05/21 10:01:38;;;;;;;1.20;1.00;;;;;;;26.60;31.66;96109.25;4933332;29;20312;-82
2022/05/21 10:04:14;;;;;;;1.52;1.20;;;;;;;26.75;31.67;96097.84;4934113;29;20717;-83
2022/05/21 10:06:46;;;;;;;1.52;1.00;;;;;;;26.25;30.98;96112.63;4933426;29;20204;-83
2022/05/21 10:12:09;;;;;;;2.38;1.30;;;;;;;26.52;32.90;96103.72;4912996;29;20291;-82
2022/05/21 10:14:40;;;;;;;1.20;1.10;;;;;;;26.66;32.76;96104.75;4933569;29;20205;-83
2022/05/21 10:17:13;;;;;;;1.10;1.00;;;;;;;26.65;31.91;96103.16;4933531;29;20257;-84
2022/05/21 10:19:46;;;;;;;1.10;1.00;;;;;;;26.77;32.04;96099.19;4932739;28;20284;-83
2022/05/21 10:22:27;;;;;;;1.08;1.00;;;;;;;26.87;31.32;96106.31;4934643;29;20562;-81
2022/05/21 10:25:00;;;;;;;4.25;3.58;;;;;;;26.95;30.54;96092.56;4937067;29;20209;-84
2022/05/21 10:27:39;;;;;;;1.10;1.10;;;;;;;27.09;30.04;96085.69;4937042;29;20213;-82
2022/05/21 10:30:13;;;;;;;1.10;1.00;;;;;;;27.08;30.14;96089.41;4936678;29;20265;-84
2022/05/21 10:33:02;;;;;;;1.35;0.98;;;;;;;27.22;30.02;96096.75;4937191;29;20291;-84
2022/05/21 10:35:44;;;;;;;1.00;0.90;;;;;;;26.81;29.97;96097.59;4937140;29;20284;-83
2022/05/21 10:38:25;;;;;;;2.03;1.83;;;;;;;26.44;29.57;96091.81;4936240;28;20788;-84
2022/05/21 10:40:55;;;;;;;4.90;4.50;;;;;;;26.70;31.09;96088.13;4936625;29;20232;-82
2022/05/21 10:43:43;;;;;;;1.63;1.42;;;;;;;27.13;30.83;96086.72;4936780;29;20617;-83
2022/05/21 10:46:15;;;;;;;1.05;1.02;;;;;;;27.40;30.10;96080.28;4936567;29;20716;-84
2022/05/21 10:49:02;;;;;;;1.30;1.20;;;;;;;27.46;29.12;96073.94;4936696;28;20637;-82
2022/05/21 10:51:33;;;;;;;6.88;6.25;;;;;;;27.57;29.89;96072.03;4936492;29;20695;-82
2022/05/21 10:54:24;;;;;;;1.10;0.95;;;;;;;27.44;28.80;96074.19;4936758;29;20214;-84
2022/05/21 10:57:03;;;;;;;1.90;0.80;;;;;;;27.45;28.81;96067.06;4937108;29;20537;-82
2022/05/21 11:00:00;;;;;;;1.05;1.00;;;;;;;27.60;29.66;96060.94;4936136;28;20271;-84
2022/05/21 11:03:01;;;;;;;1.58;0.90;;;;;;;27.58;28.38;96058.53;4936676;29;20231;-85
2022/05/21 11:06:02;;;;;;;2.97;0.95;;;;;;;27.43;28.51;96066.53;4936810;29;20267;-84
2022/05/21 11:08:37;;;;;;;2.05;0.85;;;;;;;27.56;28.09;96054.56;4936114;28;20288;-83
2022/05/21 11:11:09;;;;;;;3.17;1.13;;;;;;;27.56;28.77;96059.84;4935984;29;20228;-82
2022/05/21 11:13:40;;;;;;;1.30;1.05;;;;;;;27.64;28.82;96068.06;4936933;29;20210;-83
2022/05/21 11:16:13;;;;;;;2.15;1.02;;;;;;;27.81;27.51;96052.59;4936815;29;20210;-84
2022/05/21 11:18:43;;;;;;;1.25;0.82;;;;;;;27.84;27.67;96051.28;4935562;28;20776;-82
2022/05/21 11:21:16;;;;;;;2.33;1.00;;;;;;;27.77;29.20;96058.72;4935906;29;20777;-83
2022/05/21 11:23:54;;;;;;;1.05;0.90;;;;;;;27.81;27.64;96044.66;4935792;29;20205;-84
2022/05/21 11:26:30;;;;;;;1.08;0.90;;;;;;;27.95;27.00;96049.34;4936515;29;20261;-84
2022/05/21 11:29:02;;;;;;;1.10;0.70;;;;;;;27.94;27.20;96050.41;4935582;28;20296;-82
2022/05/21 11:37:21;;;;;;;0.98;0.80;;;;;;;27.75;27.17;96051.03;4936042;29;20201;-82
2022/05/21 11:39:48;;;;;;;0.80;0.80;;;;;;;27.73;27.61;96045.22;4935397;28;20235;-83
2022/05/21 11:42:18;;;;;;;6.38;5.80;;;;;;;27.95;28.84;96051.97;4935273;29;20213;-83
2022/05/21 11:44:56;;;;;;;2.83;2.28;;;;;;;28.01;28.62;96040.31;4936324;29;20205;-83
2022/05/21 11:47:33;;;;;;;1.00;0.93;;;;;;;28.13;27.58;96046.81;4935865;29;20201;-83
2022/05/21 11:50:19;;;;;;;1.75;1.00;;;;;;;28.07;27.80;96042.66;4935574;28;20240;-82
2022/05/21 11:52:56;;;;;;;1.23;0.88;;;;;;;28.03;26.34;96040.81;4935605;29;20244;-83
2022/05/21 11:55:25;;;;;;;3.03;0.80;;;;;;;27.90;28.59;96039.59;4935951;29;20213;-83
2022/05/21 11:57:53;;;;;;;1.10;1.00;;;;;;;28.03;29.07;96041.63;4935054;28;20201;-83
2022/05/21 12:00:46;;;;;;;1.35;0.90;;;;;;;28.08;27.65;96030.19;4935234;29;20234;-82
2022/05/21 12:03:17;;;;;;;4.22;0.88;;;;;;;28.10;27.82;96028.03;4916317;29;20206;-84
2022/05/21 12:06:14;;;;;;;1.00;0.90;;;;;;;28.10;28.44;96025.41;4916830;29;20576;-82
2022/05/21 12:08:48;;;;;;;0.77;0.73;;;;;;;28.13;29.50;96028.28;4916090;28;20745;-84
2022/05/21 12:11:39;;;;;;;12.27;11.18;;;;;;;28.17;28.88;96039.13;4916252;29;20233;-84
2022/05/21 12:14:24;;;;;;;2.00;1.67;;;;;;;28.27;29.44;96031.13;4915905;29;20662;-82